createdAt,value
2023-04-28T00:00:21.064Z,14.73
2023-04-28T00:02:49.003Z,11.52
2023-04-28T00:05:16.291Z,12.43
2023-04-28T00:07:43.315Z,13.02
2023-04-28T00:10:10.706Z,11.45
2023-04-28T00:12:38.008Z,13.88
2023-04-28T00:15:05.208Z,14.10
2023-04-28T00:17:33.238Z,15.48
2023-04-28T00:20:00.344Z,15.20
2023-04-28T00:22:27.230Z,10.88
2023-04-28T00:24:54.264Z,11.18
2023-04-28T00:27:21.399Z,12.95
2023-04-28T00:29:48.809Z,11.55
2023-04-28T00:32:15.827Z,11.18
2023-04-28T00:34:42.963Z,9.63
2023-04-28T00:37:09.983Z,10.95
2023-04-28T00:39:37.521Z,10.98
2023-04-28T00:42:04.928Z,13.57
2023-04-28T00:44:31.938Z,11.05
2023-04-28T00:46:59.791Z,12.40
2023-04-28T00:49:26.787Z,13.10
2023-04-28T00:51:53.838Z,12.00
2023-04-28T00:54:21.233Z,14.23
2023-04-28T00:56:48.992Z,14.02
2023-04-28T00:59:16.151Z,11.25
2023-04-28T01:01:43.981Z,10.73
2023-04-28T01:04:11.263Z,11.88
2023-04-28T01:06:41.921Z,10.65
2023-04-28T01:09:08.881Z,10.25
2023-04-28T01:11:37.117Z,11.50
2023-04-28T01:14:08.542Z,11.98
2023-04-28T01:16:38.957Z,12.93
2023-04-28T01:19:08.561Z,16.73
2023-04-28T01:21:38.900Z,11.40
2023-04-28T01:24:32.446Z,12.30
2023-04-28T01:27:04.011Z,12.02
2023-04-28T01:29:31.069Z,11.48
2023-04-28T01:31:58.262Z,12.13
2023-04-28T01:34:25.559Z,11.68
2023-04-28T01:36:52.511Z,13.32
2023-04-28T01:39:19.656Z,10.98
2023-04-28T01:41:46.593Z,10.27
2023-04-28T01:44:13.670Z,12.55
2023-04-28T01:46:41.095Z,12.75
2023-04-28T01:49:08.112Z,10.00
2023-04-28T01:51:35.161Z,11.10
2023-04-28T01:54:02.510Z,11.90
2023-04-28T01:56:30.194Z,10.95
2023-04-28T01:58:58.285Z,12.57
2023-04-28T02:01:25.786Z,9.80
2023-04-28T02:03:53.086Z,12.68
2023-04-28T02:06:20.259Z,8.93
2023-04-28T02:08:47.472Z,11.00
2023-04-28T02:11:14.384Z,9.32
2023-04-28T02:13:41.746Z,12.20
2023-04-28T02:16:09.817Z,10.38
2023-04-28T02:18:36.893Z,10.60
2023-04-28T02:21:13.331Z,12.00
2023-04-28T02:23:40.842Z,9.18
2023-04-28T02:26:07.950Z,10.50
2023-04-28T02:28:34.974Z,10.63
2023-04-28T02:31:09.607Z,10.63
2023-04-28T02:33:37.856Z,10.18
2023-04-28T02:36:06.237Z,9.85
2023-04-28T02:38:33.607Z,11.05
2023-04-28T02:41:02.543Z,10.60
2023-04-28T02:43:29.724Z,10.80
2023-04-28T02:45:57.024Z,9.98
2023-04-28T02:48:25.123Z,10.07
2023-04-28T02:50:53.688Z,10.18
2023-04-28T02:53:21.958Z,12.63
2023-04-28T02:55:49.939Z,10.15
2023-04-28T02:58:18.373Z,10.43
2023-04-28T03:00:46.706Z,9.40
2023-04-28T03:03:14.811Z,12.40
2023-04-28T03:05:42.036Z,11.80
2023-04-28T03:08:09.148Z,13.93
2023-04-28T03:10:36.402Z,10.10
2023-04-28T03:13:04.160Z,11.32
2023-04-28T03:15:31.289Z,15.77
2023-04-28T03:17:58.581Z,11.57
2023-04-28T03:20:25.723Z,10.43
2023-04-28T03:22:52.852Z,10.68
2023-04-28T03:25:19.943Z,10.88
2023-04-28T03:27:49.517Z,13.18
2023-04-28T03:30:16.442Z,11.35
2023-04-28T03:32:43.490Z,11.23
2023-04-28T03:35:10.631Z,11.93
2023-04-28T03:37:38.833Z,12.68
2023-04-28T03:40:07.561Z,11.18
2023-04-28T03:42:53.438Z,14.38
2023-04-28T03:45:28.591Z,13.23
2023-04-28T03:47:55.731Z,12.77
2023-04-28T03:50:24.232Z,13.43
2023-04-28T03:52:53.129Z,10.13
2023-04-28T03:55:20.132Z,10.02
2023-04-28T03:57:47.460Z,10.90
2023-04-28T04:00:14.710Z,13.02
2023-04-28T04:02:47.171Z,10.75
2023-04-28T04:05:16.264Z,11.55
2023-04-28T04:07:43.673Z,11.00
2023-04-28T04:10:11.070Z,11.57
2023-04-28T04:12:41.345Z,9.93
2023-04-28T04:15:09.280Z,11.13
2023-04-28T04:17:37.031Z,14.38
2023-04-28T04:20:04.223Z,12.20
2023-04-28T04:22:31.267Z,12.45
2023-04-28T04:24:58.171Z,12.88
2023-04-28T04:27:25.940Z,12.57
2023-04-28T04:29:52.867Z,11.82
2023-04-28T04:32:20.649Z,10.88
2023-04-28T04:34:48.139Z,12.13
2023-04-28T04:37:15.129Z,17.05
2023-04-28T04:39:48.626Z,11.90
2023-04-28T04:45:16.434Z,9.68
2023-04-28T04:47:44.019Z,12.50
2023-04-28T04:50:12.202Z,10.10
2023-04-28T04:52:39.667Z,10.60
2023-04-28T04:55:07.730Z,11.77
2023-04-28T04:57:35.085Z,12.68
2023-04-28T05:00:14.362Z,11.13
2023-04-28T05:02:42.528Z,11.30
2023-04-28T05:05:20.403Z,11.18
2023-04-28T05:07:57.596Z,11.27
2023-04-28T05:10:25.267Z,13.18
2023-04-28T05:12:52.270Z,12.35
2023-04-28T05:15:19.251Z,11.18
2023-04-28T05:18:11.008Z,12.43
2023-04-28T05:23:06.142Z,10.45
2023-04-28T05:25:33.396Z,10.57
2023-04-28T05:28:04.960Z,10.98
2023-04-28T05:30:32.075Z,11.40
2023-04-28T05:32:59.421Z,11.98
2023-04-28T05:35:27.456Z,10.80
2023-04-28T05:37:54.461Z,13.65
2023-04-28T05:40:21.748Z,11.07
2023-04-28T05:42:48.890Z,12.70
2023-04-28T05:45:16.019Z,12.77
2023-04-28T05:47:43.148Z,10.23
2023-04-28T05:50:10.878Z,10.15
2023-04-28T05:52:38.791Z,11.65
2023-04-28T05:55:06.188Z,10.40
2023-04-28T05:57:42.136Z,14.15
2023-04-28T06:00:17.993Z,11.10
2023-04-28T06:02:45.110Z,12.43
2023-04-28T06:05:12.494Z,11.68
2023-04-28T06:07:39.943Z,10.70
2023-04-28T06:10:07.491Z,11.38
2023-04-28T06:12:34.662Z,13.65
2023-04-28T06:15:01.729Z,11.00
2023-04-28T06:17:32.872Z,12.80
2023-04-28T06:20:00.188Z,9.57
2023-04-28T06:22:27.137Z,9.27
2023-04-28T06:24:54.284Z,8.88
2023-04-28T06:27:32.854Z,10.35
2023-04-28T06:29:59.983Z,8.57
2023-04-28T06:32:27.020Z,10.57
2023-04-28T06:34:54.557Z,9.30
2023-04-28T06:37:23.549Z,9.20
2023-04-28T06:39:50.646Z,10.50
2023-04-28T06:42:19.256Z,9.07
2023-04-28T06:44:54.064Z,10.52
2023-04-28T06:47:21.847Z,10.43
2023-04-28T06:49:50.285Z,10.45
2023-04-28T06:52:17.543Z,12.30
2023-04-28T06:54:44.594Z,10.32
2023-04-28T06:57:11.551Z,9.55
2023-04-28T06:59:38.563Z,11.82
2023-04-28T07:02:05.685Z,10.10
2023-04-28T07:04:32.865Z,9.32
2023-04-28T07:06:59.953Z,9.27
2023-04-28T07:09:27.158Z,10.68
2023-04-28T07:11:55.174Z,11.23
2023-04-28T07:14:22.715Z,9.55
2023-04-28T07:16:49.714Z,12.50
2023-04-28T07:19:17.002Z,10.48
2023-04-28T07:21:44.662Z,7.68
2023-04-28T07:24:11.668Z,8.85
2023-04-28T07:26:38.712Z,8.80
2023-04-28T07:29:05.716Z,10.88
2023-04-28T07:31:32.724Z,12.23
2023-04-28T07:33:59.802Z,8.82
2023-04-28T07:36:27.108Z,9.70
2023-04-28T07:38:54.274Z,9.10
2023-04-28T07:41:21.198Z,8.32
2023-04-28T07:43:48.200Z,9.38
2023-04-28T07:46:15.533Z,10.98
2023-04-28T07:48:45.585Z,9.50
2023-04-28T07:51:12.539Z,8.75
2023-04-28T07:53:39.532Z,10.77
2023-04-28T07:56:06.772Z,11.15
2023-04-28T07:58:33.856Z,9.52
2023-04-28T08:01:01.038Z,9.27
2023-04-28T08:03:28.227Z,10.45
2023-04-28T08:05:55.488Z,10.55
2023-04-28T08:08:22.666Z,9.88
2023-04-28T08:10:51.071Z,11.40
2023-04-28T08:13:18.346Z,13.73
2023-04-28T08:15:45.360Z,11.45
2023-04-28T08:18:12.331Z,12.63
2023-04-28T08:20:39.576Z,12.00
2023-04-28T08:23:06.576Z,11.40
2023-04-28T08:25:33.561Z,11.90
2023-04-28T08:28:00.616Z,10.68
2023-04-28T08:30:27.621Z,12.07
2023-04-28T08:32:54.590Z,11.60
2023-04-28T08:35:21.727Z,11.15
2023-04-28T08:37:49.722Z,11.95
2023-04-28T08:40:16.834Z,12.18
2023-04-28T08:42:46.067Z,10.07
2023-04-28T08:45:16.535Z,11.35
2023-04-28T08:47:48.291Z,10.55
2023-04-28T08:50:16.501Z,14.07
2023-04-28T08:52:43.700Z,13.43
2023-04-28T08:55:12.864Z,11.80
2023-04-28T08:57:43.235Z,14.75
2023-04-28T09:00:11.785Z,10.98
2023-04-28T09:02:42.375Z,11.15
2023-04-28T09:05:11.287Z,12.27
2023-04-28T09:07:39.047Z,13.32
2023-04-28T09:10:25.807Z,12.32
2023-04-28T09:12:55.902Z,10.18
2023-04-28T09:15:41.679Z,12.45
2023-04-28T09:18:08.986Z,12.98
2023-04-28T09:20:37.186Z,12.20
2023-04-28T09:23:18.744Z,11.13
2023-04-28T09:26:05.644Z,10.38
2023-04-28T09:28:34.539Z,11.75
2023-04-28T09:31:01.845Z,11.05
2023-04-28T09:33:29.033Z,12.07
2023-04-28T09:35:56.642Z,10.88
2023-04-28T09:38:23.939Z,10.60
2023-04-28T09:41:01.233Z,11.68
2023-04-28T09:43:33.706Z,10.73
2023-04-28T09:46:05.467Z,10.65
2023-04-28T09:48:33.489Z,11.35
2023-04-28T09:51:02.823Z,11.80
2023-04-28T09:53:32.890Z,11.73
2023-04-28T09:56:02.182Z,10.93
2023-04-28T09:58:30.291Z,12.07
2023-04-28T10:00:58.912Z,11.45
2023-04-28T10:03:29.581Z,14.13
2023-04-28T10:05:58.909Z,14.05
2023-04-28T10:08:27.677Z,11.32
2023-04-28T10:10:55.609Z,13.30
2023-04-28T10:13:24.438Z,11.40
2023-04-28T10:15:55.611Z,13.25
2023-04-28T10:18:23.868Z,13.00
2023-04-28T10:20:57.597Z,12.00
2023-04-28T10:23:52.042Z,14.48
2023-04-28T10:26:20.281Z,12.60
2023-04-28T10:28:48.659Z,16.45
2023-04-28T10:31:23.546Z,14.27
2023-04-28T10:33:50.818Z,12.95
2023-04-28T10:36:52.924Z,14.00
2023-04-28T10:39:20.143Z,12.75
2023-04-28T10:41:49.108Z,13.45
2023-04-28T10:44:28.603Z,14.30
2023-04-28T10:47:09.826Z,15.57
2023-04-28T10:49:56.369Z,13.48
2023-04-28T10:52:49.928Z,16.27
2023-04-28T10:55:33.452Z,13.48
2023-04-28T10:58:15.709Z,15.73
2023-04-28T11:00:45.466Z,13.43
2023-04-28T11:03:51.159Z,12.35
2023-04-28T11:06:28.919Z,11.20
2023-04-28T11:08:58.737Z,12.90
2023-04-28T11:11:26.233Z,15.65
2023-04-28T11:13:55.668Z,13.45
2023-04-28T11:16:24.941Z,14.48
2023-04-28T11:18:54.415Z,13.45
2023-04-28T11:21:24.967Z,13.15
2023-04-28T11:23:52.696Z,12.38
2023-04-28T11:26:20.371Z,16.23
2023-04-28T11:28:49.157Z,15.60
2023-04-28T11:31:19.475Z,14.70
2023-04-28T11:34:17.467Z,13.77
2023-04-28T11:36:44.850Z,15.27
2023-04-28T11:39:13.429Z,13.32
2023-04-28T11:41:42.764Z,17.92
2023-04-28T11:44:20.922Z,16.73
2023-04-28T11:47:01.255Z,12.93
2023-04-28T11:49:30.922Z,12.43
2023-04-28T11:52:00.459Z,14.13
2023-04-28T11:54:29.283Z,12.20
2023-04-28T11:56:57.973Z,13.05
2023-04-28T11:59:34.016Z,16.30
2023-04-28T12:02:06.056Z,13.77
2023-04-28T12:04:38.080Z,12.13
2023-04-28T12:07:16.397Z,12.45
2023-04-28T12:10:10.211Z,13.00
2023-04-28T12:15:08.412Z,12.32
2023-04-28T12:17:37.556Z,12.80
2023-04-28T12:20:07.408Z,13.85
2023-04-28T12:22:49.227Z,12.90
2023-04-28T12:25:19.580Z,11.45
2023-04-28T12:28:10.978Z,11.23
2023-04-28T12:30:41.946Z,11.05
2023-04-28T12:33:29.801Z,10.40
2023-04-28T12:35:58.047Z,10.10
2023-04-28T12:38:25.324Z,11.05
2023-04-28T12:40:53.122Z,11.48
2023-04-28T12:43:23.374Z,10.30
2023-04-28T12:45:53.512Z,10.68
2023-04-28T12:48:21.611Z,9.55
2023-04-28T12:50:48.531Z,10.02
2023-04-28T12:53:15.592Z,8.93
2023-04-28T12:55:45.138Z,9.73
2023-04-28T12:58:12.262Z,10.50
2023-04-28T13:00:42.051Z,10.15
2023-04-28T13:03:12.227Z,10.98
2023-04-28T13:05:42.533Z,9.45
2023-04-28T13:08:09.675Z,8.38
2023-04-28T13:10:36.922Z,9.05
2023-04-28T13:13:05.560Z,8.88
2023-04-28T13:15:32.563Z,9.20
2023-04-28T13:18:00.105Z,8.27
2023-04-28T13:20:27.346Z,8.38
2023-04-28T13:22:54.248Z,7.90
2023-04-28T13:25:21.734Z,7.32
2023-04-28T13:27:49.090Z,6.97
2023-04-28T13:30:16.322Z,8.40
2023-04-28T13:32:43.367Z,9.65
2023-04-28T13:35:10.319Z,9.95
2023-04-28T13:37:42.653Z,7.03
2023-04-28T13:40:10.368Z,9.10
2023-04-28T13:42:37.532Z,9.15
2023-04-28T13:45:05.077Z,10.00
2023-04-28T13:47:34.569Z,8.65
2023-04-28T13:50:02.238Z,7.72
2023-04-28T13:52:30.309Z,9.30
2023-04-28T13:54:59.308Z,8.65
2023-04-28T13:57:26.449Z,10.35
2023-04-28T13:59:56.469Z,8.52
2023-04-28T14:02:24.777Z,9.48
2023-04-28T14:04:52.853Z,7.68
2023-04-28T14:07:20.227Z,8.30
2023-04-28T14:09:47.452Z,10.75
2023-04-28T14:12:17.111Z,7.45
2023-04-28T14:14:44.186Z,8.68
2023-04-28T14:17:12.676Z,7.78
2023-04-28T14:19:39.750Z,7.30
2023-04-28T14:22:07.187Z,8.27
2023-04-28T14:24:34.548Z,7.63
2023-04-28T14:27:01.465Z,7.75
2023-04-28T14:29:28.639Z,6.35
2023-04-28T14:31:55.785Z,9.68
2023-04-28T14:34:22.784Z,8.30
2023-04-28T14:36:49.978Z,7.32
2023-04-28T14:39:17.464Z,7.20
2023-04-28T14:41:44.498Z,8.30
2023-04-28T14:44:11.575Z,5.75
2023-04-28T14:46:41.446Z,6.50
2023-04-28T14:49:09.431Z,6.25
2023-04-28T14:51:36.465Z,6.53
2023-04-28T14:54:03.600Z,5.32
2023-04-28T14:56:32.636Z,5.85
2023-04-28T14:59:01.183Z,7.05
2023-04-28T15:01:28.350Z,8.18
2023-04-28T15:03:55.580Z,8.13
2023-04-28T15:06:22.936Z,8.15
2023-04-28T15:08:49.819Z,6.85
2023-04-28T15:11:16.831Z,5.22
2023-04-28T15:13:43.902Z,5.65
2023-04-28T15:16:10.913Z,8.30
2023-04-28T15:18:38.476Z,4.88
2023-04-28T15:21:06.501Z,5.35
2023-04-28T15:23:33.401Z,5.53
2023-04-28T15:26:00.601Z,4.78
2023-04-28T15:28:28.291Z,4.60
2023-04-28T15:30:55.532Z,5.22
2023-04-28T15:33:22.935Z,6.38
2023-04-28T15:35:50.242Z,4.97
2023-04-28T15:38:18.217Z,5.15
2023-04-28T15:40:46.309Z,5.63
2023-04-28T15:43:13.567Z,4.22
2023-04-28T15:45:40.680Z,7.53
2023-04-28T15:48:09.259Z,4.93
2023-04-28T15:50:37.493Z,3.35
2023-04-28T15:53:04.424Z,3.85
2023-04-28T15:55:31.541Z,5.60
2023-04-28T15:57:58.567Z,4.97
2023-04-28T16:00:25.987Z,5.43
2023-04-28T16:02:53.180Z,5.18
2023-04-28T16:05:20.501Z,5.43
2023-04-28T16:07:47.807Z,5.50
2023-04-28T16:10:16.710Z,6.68
2023-04-28T16:12:44.303Z,5.45
2023-04-28T16:15:13.221Z,5.28
2023-04-28T16:17:41.864Z,4.10
2023-04-28T16:20:11.223Z,4.35
2023-04-28T16:22:40.749Z,5.60
2023-04-28T16:25:08.227Z,4.18
2023-04-28T16:27:36.430Z,5.18
2023-04-28T16:30:07.318Z,4.03
2023-04-28T16:32:36.703Z,5.45
2023-04-28T16:35:06.380Z,5.25
2023-04-28T16:37:33.770Z,5.28
2023-04-28T16:40:01.481Z,5.57
2023-04-28T16:42:28.505Z,4.35
2023-04-28T16:44:55.723Z,6.65
2023-04-28T16:47:22.783Z,4.28
2023-04-28T16:49:49.978Z,4.88
2023-04-28T16:52:17.167Z,4.65
2023-04-28T16:54:44.019Z,5.78
2023-04-28T16:57:11.479Z,5.22
2023-04-28T16:59:38.549Z,4.18
2023-04-28T17:02:06.735Z,4.80
2023-04-28T17:04:34.509Z,5.90
2023-04-28T17:07:04.746Z,4.55
2023-04-28T17:09:33.451Z,5.32
2023-04-28T17:12:01.215Z,3.65
2023-04-28T17:14:28.713Z,5.40
2023-04-28T17:16:56.021Z,3.97
2023-04-28T17:19:23.269Z,4.60
2023-04-28T17:21:52.797Z,4.13
2023-04-28T17:24:19.964Z,4.03
2023-04-28T17:26:47.253Z,3.00
2023-04-28T17:29:14.318Z,2.42
2023-04-28T17:31:41.757Z,3.00
2023-04-28T17:34:08.780Z,3.67
2023-04-28T17:36:35.920Z,4.32
2023-04-28T17:39:04.670Z,3.67
2023-04-28T17:41:32.234Z,6.43
2023-04-28T17:43:59.506Z,4.43
2023-04-28T17:46:26.569Z,4.38
2023-04-28T17:48:53.772Z,5.13
2023-04-28T17:51:21.421Z,3.92
2023-04-28T17:53:48.936Z,5.05
2023-04-28T17:56:16.652Z,3.95
2023-04-28T17:58:43.873Z,4.82
2023-04-28T18:01:10.967Z,5.53
2023-04-28T18:03:39.156Z,3.63
2023-04-28T18:06:08.143Z,3.85
2023-04-28T18:08:36.982Z,4.03
2023-04-28T18:11:05.082Z,6.43
2023-04-28T18:13:33.312Z,5.25
2023-04-28T18:16:01.123Z,4.78
2023-04-28T18:18:30.573Z,6.32
2023-04-28T18:20:59.748Z,4.05
2023-04-28T18:23:27.424Z,5.75
2023-04-28T18:25:54.496Z,6.95
2023-04-28T18:28:22.078Z,7.15
2023-04-28T18:30:49.105Z,6.53
2023-04-28T18:33:19.970Z,5.05
2023-04-28T18:35:49.293Z,8.10
2023-04-28T18:38:16.191Z,6.45
2023-04-28T18:40:43.188Z,7.90
2023-04-28T18:43:13.403Z,6.82
2023-04-28T18:45:44.274Z,7.05
2023-04-28T18:48:12.182Z,6.57
2023-04-28T18:50:39.425Z,7.80
2023-04-28T18:53:08.573Z,6.60
2023-04-28T18:55:35.564Z,5.65
2023-04-28T18:58:03.030Z,7.00
2023-04-28T19:00:31.121Z,7.10
2023-04-28T19:02:58.405Z,5.20
2023-04-28T19:05:26.012Z,8.63
2023-04-28T19:07:52.963Z,6.25
2023-04-28T19:10:20.086Z,5.88
2023-04-28T19:12:47.207Z,5.47
2023-04-28T19:15:14.516Z,5.13
2023-04-28T19:17:41.539Z,7.90
2023-04-28T19:20:09.164Z,4.95
2023-04-28T19:22:38.067Z,6.88
2023-04-28T19:25:06.911Z,5.93
2023-04-28T19:27:39.940Z,5.95
2023-04-28T19:30:08.969Z,6.20
2023-04-28T19:32:36.085Z,6.05
2023-04-28T19:35:08.156Z,6.68
2023-04-28T19:37:36.721Z,6.55
2023-04-28T19:40:05.076Z,8.80
2023-04-28T19:42:33.542Z,7.25
2023-04-28T19:45:00.998Z,6.78
2023-04-28T19:47:33.302Z,8.55
2023-04-28T19:50:00.589Z,7.32
2023-04-28T19:52:28.098Z,8.07
2023-04-28T19:54:55.106Z,7.65
2023-04-28T19:57:22.200Z,7.97
2023-04-28T19:59:49.965Z,8.07
2023-04-28T20:02:17.485Z,11.05
2023-04-28T20:04:45.383Z,8.55
2023-04-28T20:07:12.483Z,9.50
2023-04-28T20:09:39.630Z,9.45
2023-04-28T20:12:08.810Z,8.93
2023-04-28T20:14:36.096Z,9.93
2023-04-28T20:17:04.513Z,9.10
2023-04-28T20:19:31.837Z,8.52
2023-04-28T20:21:58.982Z,9.13
2023-04-28T20:24:26.084Z,8.68
2023-04-28T20:26:54.759Z,8.65
2023-04-28T20:29:22.115Z,8.23
2023-04-28T20:31:49.399Z,8.15
2023-04-28T20:34:17.381Z,8.00
2023-04-28T20:36:44.295Z,9.57
2023-04-28T20:39:11.934Z,8.45
2023-04-28T20:41:41.004Z,8.27
2023-04-28T20:44:08.633Z,8.57
2023-04-28T20:46:35.784Z,10.20
2023-04-28T20:49:04.503Z,8.77
2023-04-28T20:51:36.202Z,9.70
2023-04-28T20:54:04.427Z,7.85
2023-04-28T20:56:31.399Z,8.20
2023-04-28T20:58:58.392Z,8.23
2023-04-28T21:01:25.729Z,8.80
2023-04-28T21:03:53.107Z,9.45
2023-04-28T21:06:20.192Z,7.60
2023-04-28T21:08:47.235Z,9.63
2023-04-28T21:11:15.621Z,8.57
2023-04-28T21:13:43.301Z,8.60
2023-04-28T21:16:20.674Z,8.73
2023-04-28T21:18:49.525Z,7.53
2023-04-28T21:21:17.334Z,8.70
2023-04-28T21:23:44.496Z,8.18
2023-04-28T21:26:11.594Z,8.70
2023-04-28T21:28:40.023Z,8.75
2023-04-28T21:31:07.641Z,9.63
2023-04-28T21:33:34.688Z,8.63
2023-04-28T21:36:09.400Z,8.20
2023-04-28T21:38:39.424Z,8.02
2023-04-28T21:41:07.848Z,8.10
2023-04-28T21:43:35.196Z,8.77
2023-04-28T21:46:02.323Z,11.18
2023-04-28T21:48:29.446Z,8.43
2023-04-28T21:50:57.074Z,7.90
2023-04-28T21:53:24.009Z,9.18
2023-04-28T21:55:51.105Z,8.23
2023-04-28T21:58:18.176Z,9.95
2023-04-28T22:00:47.233Z,8.27
2023-04-28T22:03:15.510Z,7.78
2023-04-28T22:05:44.104Z,8.18
2023-04-28T22:08:11.543Z,8.63
2023-04-28T22:10:39.097Z,8.07
2023-04-28T22:13:06.803Z,8.30
2023-04-28T22:15:34.038Z,7.78
2023-04-28T22:18:01.014Z,8.02
2023-04-28T22:20:27.994Z,8.70
2023-04-28T22:22:55.483Z,9.43
2023-04-28T22:25:22.485Z,9.18
2023-04-28T22:27:49.614Z,10.13
2023-04-28T22:30:16.791Z,11.80
2023-04-28T22:32:47.598Z,11.35
2023-04-28T22:35:16.871Z,8.60
2023-04-28T22:37:44.228Z,8.50
2023-04-28T22:40:11.509Z,7.30
2023-04-28T22:42:40.256Z,9.02
2023-04-28T22:45:08.545Z,7.78
2023-04-28T22:47:36.626Z,8.98
2023-04-28T22:50:08.055Z,9.10
2023-04-28T22:52:35.438Z,12.52
2023-04-28T22:55:02.802Z,6.38
2023-04-28T22:57:30.942Z,6.93
2023-04-28T22:59:58.176Z,7.00
2023-04-28T23:02:25.513Z,7.55
2023-04-28T23:04:52.861Z,6.90
2023-04-28T23:07:20.036Z,7.22
2023-04-28T23:09:46.946Z,5.93
2023-04-28T23:12:14.034Z,7.18
2023-04-28T23:14:41.079Z,6.90
2023-04-28T23:17:07.982Z,6.85
2023-04-28T23:19:47.745Z,5.95
2023-04-28T23:22:15.002Z,6.68
2023-04-28T23:24:42.569Z,6.10
2023-04-28T23:27:09.750Z,6.28
2023-04-28T23:29:36.606Z,7.60
2023-04-28T23:32:04.462Z,6.80
2023-04-28T23:34:31.456Z,7.45
2023-04-28T23:36:58.640Z,7.35
2023-04-28T23:39:25.902Z,7.65
2023-04-28T23:41:52.798Z,8.85
2023-04-28T23:44:19.759Z,7.80
2023-04-28T23:46:47.086Z,6.20
2023-04-28T23:49:14.181Z,6.22
2023-04-28T23:51:41.328Z,7.70
2023-04-28T23:54:09.422Z,7.53
2023-04-28T23:56:36.383Z,8.18
2023-04-28T23:59:04.433Z,7.85
